sensor_id;sensor_type;location;lat;lon;timestamp;P1;durP1;ratioP1;P2;durP2;ratioP2
8568;SDS011;4322;51.104;-4.162;2023-03-03T00:00:06;1.77;;;1.77;;
8568;SDS011;4322;51.104;-4.162;2023-03-03T00:02:34;1.70;;;1.70;;
8568;SDS011;4322;51.104;-4.162;2023-03-03T00:05:05;1.90;;;1.90;;
8568;SDS011;4322;51.104;-4.162;2023-03-03T00:07:33;1.67;;;1.67;;
8568;SDS011;4322;51.104;-4.162;2023-03-03T00:10:01;1.70;;;1.70;;
8568;SDS011;4322;51.104;-4.162;2023-03-03T00:12:29;1.77;;;1.77;;
8568;SDS011;4322;51.104;-4.162;2023-03-03T00:14:59;1.73;;;1.73;;
8568;SDS011;4322;51.104;-4.162;2023-03-03T00:17:27;1.73;;;1.73;;
8568;SDS011;4322;51.104;-4.162;2023-03-03T00:19:55;1.93;;;1.93;;
8568;SDS011;4322;51.104;-4.162;2023-03-03T00:22:27;2.03;;;2.03;;
8568;SDS011;4322;51.104;-4.162;2023-03-03T00:24:57;1.80;;;1.80;;
8568;SDS011;4322;51.104;-4.162;2023-03-03T00:27:27;1.97;;;1.97;;
8568;SDS011;4322;51.104;-4.162;2023-03-03T00:29:56;1.87;;;1.87;;
8568;SDS011;4322;51.104;-4.162;2023-03-03T00:32:25;2.13;;;2.10;;
8568;SDS011;4322;51.104;-4.162;2023-03-03T00:34:54;1.90;;;1.90;;
8568;SDS011;4322;51.104;-4.162;2023-03-03T00:37:28;1.90;;;1.90;;
8568;SDS011;4322;51.104;-4.162;2023-03-03T00:42:43;1.70;;;1.70;;
8568;SDS011;4322;51.104;-4.162;2023-03-03T00:45:23;1.77;;;1.77;;
8568;SDS011;4322;51.104;-4.162;2023-03-03T00:47:55;1.90;;;1.90;;
8568;SDS011;4322;51.104;-4.162;2023-03-03T00:50:27;2.00;;;2.00;;
8568;SDS011;4322;51.104;-4.162;2023-03-03T00:53:04;1.87;;;1.87;;
8568;SDS011;4322;51.104;-4.162;2023-03-03T00:55:32;2.00;;;2.00;;
8568;SDS011;4322;51.104;-4.162;2023-03-03T00:58:00;1.63;;;1.63;;
8568;SDS011;4322;51.104;-4.162;2023-03-03T01:00:28;1.67;;;1.67;;
8568;SDS011;4322;51.104;-4.162;2023-03-03T01:02:59;2.00;;;2.00;;
8568;SDS011;4322;51.104;-4.162;2023-03-03T01:05:28;1.80;;;1.80;;
8568;SDS011;4322;51.104;-4.162;2023-03-03T01:07:56;2.00;;;2.00;;
8568;SDS011;4322;51.104;-4.162;2023-03-03T01:10:25;1.63;;;1.63;;
8568;SDS011;4322;51.104;-4.162;2023-03-03T01:12:54;2.03;;;2.03;;
8568;SDS011;4322;51.104;-4.162;2023-03-03T01:15:23;1.90;;;1.90;;
8568;SDS011;4322;51.104;-4.162;2023-03-03T01:17:51;2.27;;;2.20;;
8568;SDS011;4322;51.104;-4.162;2023-03-03T01:20:18;2.30;;;2.20;;
8568;SDS011;4322;51.104;-4.162;2023-03-03T01:22:46;1.93;;;1.93;;
8568;SDS011;4322;51.104;-4.162;2023-03-03T01:25:14;2.17;;;2.13;;
8568;SDS011;4322;51.104;-4.162;2023-03-03T01:27:43;2.03;;;2.03;;
8568;SDS011;4322;51.104;-4.162;2023-03-03T01:30:11;2.00;;;2.00;;
8568;SDS011;4322;51.104;-4.162;2023-03-03T01:32:39;2.07;;;2.07;;
8568;SDS011;4322;51.104;-4.162;2023-03-03T01:35:07;2.40;;;2.30;;
8568;SDS011;4322;51.104;-4.162;2023-03-03T01:37:35;2.40;;;2.30;;
8568;SDS011;4322;51.104;-4.162;2023-03-03T01:40:03;2.23;;;2.17;;
8568;SDS011;4322;51.104;-4.162;2023-03-03T01:42:31;2.30;;;2.20;;
8568;SDS011;4322;51.104;-4.162;2023-03-03T01:45:12;2.30;;;2.20;;
8568;SDS011;4322;51.104;-4.162;2023-03-03T01:47:41;2.20;;;2.13;;
8568;SDS011;4322;51.104;-4.162;2023-03-03T01:50:11;2.33;;;2.23;;
8568;SDS011;4322;51.104;-4.162;2023-03-03T01:52:42;2.60;;;2.50;;
8568;SDS011;4322;51.104;-4.162;2023-03-03T01:55:12;2.40;;;2.30;;
8568;SDS011;4322;51.104;-4.162;2023-03-03T01:57:41;2.40;;;2.30;;
8568;SDS011;4322;51.104;-4.162;2023-03-03T02:00:14;2.40;;;2.30;;
8568;SDS011;4322;51.104;-4.162;2023-03-03T02:02:43;2.50;;;2.40;;
8568;SDS011;4322;51.104;-4.162;2023-03-03T02:05:12;2.40;;;2.30;;
8568;SDS011;4322;51.104;-4.162;2023-03-03T02:07:41;2.60;;;2.50;;
8568;SDS011;4322;51.104;-4.162;2023-03-03T02:10:10;2.50;;;2.40;;
8568;SDS011;4322;51.104;-4.162;2023-03-03T02:12:39;2.57;;;2.47;;
8568;SDS011;4322;51.104;-4.162;2023-03-03T02:15:16;2.40;;;2.30;;
8568;SDS011;4322;51.104;-4.162;2023-03-03T02:17:44;2.63;;;2.53;;
8568;SDS011;4322;51.104;-4.162;2023-03-03T02:20:13;2.50;;;2.40;;
8568;SDS011;4322;51.104;-4.162;2023-03-03T02:22:46;2.50;;;2.40;;
8568;SDS011;4322;51.104;-4.162;2023-03-03T02:25:18;2.50;;;2.40;;
8568;SDS011;4322;51.104;-4.162;2023-03-03T02:27:50;2.40;;;2.30;;
8568;SDS011;4322;51.104;-4.162;2023-03-03T02:30:20;2.53;;;2.43;;
8568;SDS011;4322;51.104;-4.162;2023-03-03T02:32:48;2.30;;;2.20;;
8568;SDS011;4322;51.104;-4.162;2023-03-03T02:35:29;2.20;;;2.10;;
8568;SDS011;4322;51.104;-4.162;2023-03-03T02:37:59;2.43;;;2.33;;
8568;SDS011;4322;51.104;-4.162;2023-03-03T02:40:30;2.60;;;2.50;;
8568;SDS011;4322;51.104;-4.162;2023-03-03T02:43:02;2.57;;;2.47;;
8568;SDS011;4322;51.104;-4.162;2023-03-03T02:45:32;2.70;;;2.60;;
8568;SDS011;4322;51.104;-4.162;2023-03-03T02:48:00;2.60;;;2.50;;
8568;SDS011;4322;51.104;-4.162;2023-03-03T02:50:27;2.43;;;2.33;;
8568;SDS011;4322;51.104;-4.162;2023-03-03T02:52:55;2.63;;;2.53;;
8568;SDS011;4322;51.104;-4.162;2023-03-03T02:55:23;2.70;;;2.60;;
8568;SDS011;4322;51.104;-4.162;2023-03-03T02:57:53;2.80;;;2.70;;
8568;SDS011;4322;51.104;-4.162;2023-03-03T03:00:22;2.80;;;2.70;;
8568;SDS011;4322;51.104;-4.162;2023-03-03T03:02:50;2.83;;;2.73;;
8568;SDS011;4322;51.104;-4.162;2023-03-03T03:05:20;2.70;;;2.60;;
8568;SDS011;4322;51.104;-4.162;2023-03-03T03:07:48;2.33;;;2.23;;
8568;SDS011;4322;51.104;-4.162;2023-03-03T03:10:16;2.53;;;2.43;;
8568;SDS011;4322;51.104;-4.162;2023-03-03T03:12:43;2.70;;;2.60;;
8568;SDS011;4322;51.104;-4.162;2023-03-03T03:15:11;2.60;;;2.50;;
8568;SDS011;4322;51.104;-4.162;2023-03-03T03:17:40;2.60;;;2.50;;
8568;SDS011;4322;51.104;-4.162;2023-03-03T03:20:09;2.50;;;2.40;;
8568;SDS011;4322;51.104;-4.162;2023-03-03T03:22:37;2.80;;;2.70;;
8568;SDS011;4322;51.104;-4.162;2023-03-03T03:25:05;2.70;;;2.60;;
8568;SDS011;4322;51.104;-4.162;2023-03-03T03:27:33;2.77;;;2.67;;
8568;SDS011;4322;51.104;-4.162;2023-03-03T03:30:01;2.70;;;2.60;;
8568;SDS011;4322;51.104;-4.162;2023-03-03T03:32:28;2.90;;;2.80;;
8568;SDS011;4322;51.104;-4.162;2023-03-03T03:34:58;3.00;;;2.90;;
8568;SDS011;4322;51.104;-4.162;2023-03-03T03:37:25;2.80;;;2.70;;
8568;SDS011;4322;51.104;-4.162;2023-03-03T03:39:53;3.30;;;3.20;;
8568;SDS011;4322;51.104;-4.162;2023-03-03T03:42:21;3.20;;;3.10;;
8568;SDS011;4322;51.104;-4.162;2023-03-03T03:44:49;3.00;;;2.90;;
8568;SDS011;4322;51.104;-4.162;2023-03-03T03:47:17;2.90;;;2.80;;
8568;SDS011;4322;51.104;-4.162;2023-03-03T03:49:45;3.23;;;3.13;;
8568;SDS011;4322;51.104;-4.162;2023-03-03T03:52:14;3.27;;;3.17;;
8568;SDS011;4322;51.104;-4.162;2023-03-03T03:54:42;3.10;;;3.00;;
8568;SDS011;4322;51.104;-4.162;2023-03-03T03:57:09;3.10;;;3.00;;
8568;SDS011;4322;51.104;-4.162;2023-03-03T03:59:37;3.00;;;2.90;;
8568;SDS011;4322;51.104;-4.162;2023-03-03T04:02:07;3.00;;;2.90;;
8568;SDS011;4322;51.104;-4.162;2023-03-03T04:04:35;2.80;;;2.70;;
8568;SDS011;4322;51.104;-4.162;2023-03-03T04:07:03;2.80;;;2.70;;
8568;SDS011;4322;51.104;-4.162;2023-03-03T04:09:32;3.17;;;3.07;;
8568;SDS011;4322;51.104;-4.162;2023-03-03T04:12:00;3.10;;;3.00;;
8568;SDS011;4322;51.104;-4.162;2023-03-03T04:14:28;3.40;;;3.30;;
8568;SDS011;4322;51.104;-4.162;2023-03-03T04:16:58;3.20;;;3.10;;
8568;SDS011;4322;51.104;-4.162;2023-03-03T04:19:26;3.30;;;3.20;;
8568;SDS011;4322;51.104;-4.162;2023-03-03T04:21:53;3.03;;;2.93;;
8568;SDS011;4322;51.104;-4.162;2023-03-03T04:24:21;3.13;;;3.03;;
8568;SDS011;4322;51.104;-4.162;2023-03-03T04:26:50;3.17;;;3.07;;
8568;SDS011;4322;51.104;-4.162;2023-03-03T04:29:18;3.03;;;2.93;;
8568;SDS011;4322;51.104;-4.162;2023-03-03T04:31:46;3.20;;;3.10;;
8568;SDS011;4322;51.104;-4.162;2023-03-03T04:34:14;3.47;;;3.37;;
8568;SDS011;4322;51.104;-4.162;2023-03-03T04:36:41;3.33;;;3.23;;
8568;SDS011;4322;51.104;-4.162;2023-03-03T04:39:09;3.33;;;3.23;;
8568;SDS011;4322;51.104;-4.162;2023-03-03T04:41:37;3.57;;;3.47;;
8568;SDS011;4322;51.104;-4.162;2023-03-03T04:44:06;3.40;;;3.30;;
8568;SDS011;4322;51.104;-4.162;2023-03-03T04:46:34;3.10;;;3.00;;
8568;SDS011;4322;51.104;-4.162;2023-03-03T04:49:02;3.57;;;3.47;;
8568;SDS011;4322;51.104;-4.162;2023-03-03T04:51:34;3.50;;;3.40;;
8568;SDS011;4322;51.104;-4.162;2023-03-03T04:54:02;3.60;;;3.50;;
8568;SDS011;4322;51.104;-4.162;2023-03-03T04:56:29;3.50;;;3.40;;
8568;SDS011;4322;51.104;-4.162;2023-03-03T04:58:57;3.80;;;3.70;;
8568;SDS011;4322;51.104;-4.162;2023-03-03T05:01:27;3.63;;;3.53;;
8568;SDS011;4322;51.104;-4.162;2023-03-03T05:03:54;3.30;;;3.20;;
8568;SDS011;4322;51.104;-4.162;2023-03-03T05:06:22;3.30;;;3.20;;
8568;SDS011;4322;51.104;-4.162;2023-03-03T05:08:50;3.27;;;3.17;;
8568;SDS011;4322;51.104;-4.162;2023-03-03T05:11:18;3.10;;;3.00;;
8568;SDS011;4322;51.104;-4.162;2023-03-03T05:13:45;3.20;;;3.10;;
8568;SDS011;4322;51.104;-4.162;2023-03-03T05:16:13;3.40;;;3.30;;
8568;SDS011;4322;51.104;-4.162;2023-03-03T05:18:43;3.30;;;3.20;;
8568;SDS011;4322;51.104;-4.162;2023-03-03T05:21:11;3.33;;;3.23;;
8568;SDS011;4322;51.104;-4.162;2023-03-03T05:23:38;3.20;;;3.10;;
8568;SDS011;4322;51.104;-4.162;2023-03-03T05:26:06;3.47;;;3.37;;
8568;SDS011;4322;51.104;-4.162;2023-03-03T05:28:34;3.40;;;3.30;;
8568;SDS011;4322;51.104;-4.162;2023-03-03T05:31:02;3.67;;;3.57;;
8568;SDS011;4322;51.104;-4.162;2023-03-03T05:33:30;3.70;;;3.60;;
8568;SDS011;4322;51.104;-4.162;2023-03-03T05:35:59;3.40;;;3.30;;
8568;SDS011;4322;51.104;-4.162;2023-03-03T05:38:27;3.70;;;3.60;;
8568;SDS011;4322;51.104;-4.162;2023-03-03T05:40:55;3.40;;;3.30;;
8568;SDS011;4322;51.104;-4.162;2023-03-03T05:43:22;3.33;;;3.23;;
8568;SDS011;4322;51.104;-4.162;2023-03-03T05:45:53;3.03;;;2.93;;
8568;SDS011;4322;51.104;-4.162;2023-03-03T05:48:21;3.53;;;3.43;;
8568;SDS011;4322;51.104;-4.162;2023-03-03T05:50:49;3.50;;;3.40;;
8568;SDS011;4322;51.104;-4.162;2023-03-03T05:53:18;3.40;;;3.30;;
8568;SDS011;4322;51.104;-4.162;2023-03-03T05:55:45;3.80;;;3.70;;
8568;SDS011;4322;51.104;-4.162;2023-03-03T05:58:13;3.63;;;3.53;;
8568;SDS011;4322;51.104;-4.162;2023-03-03T06:00:41;3.60;;;3.50;;
8568;SDS011;4322;51.104;-4.162;2023-03-03T06:03:09;3.40;;;3.30;;
8568;SDS011;4322;51.104;-4.162;2023-03-03T06:05:36;3.50;;;3.40;;
8568;SDS011;4322;51.104;-4.162;2023-03-03T06:08:04;3.30;;;3.20;;
8568;SDS011;4322;51.104;-4.162;2023-03-03T06:10:33;3.60;;;3.50;;
8568;SDS011;4322;51.104;-4.162;2023-03-03T06:13:01;3.40;;;3.30;;
8568;SDS011;4322;51.104;-4.162;2023-03-03T06:15:29;3.17;;;3.07;;
8568;SDS011;4322;51.104;-4.162;2023-03-03T06:17:57;3.47;;;3.37;;
8568;SDS011;4322;51.104;-4.162;2023-03-03T06:20:24;3.53;;;3.43;;
8568;SDS011;4322;51.104;-4.162;2023-03-03T06:22:52;3.70;;;3.60;;
8568;SDS011;4322;51.104;-4.162;2023-03-03T06:25:20;3.50;;;3.40;;
8568;SDS011;4322;51.104;-4.162;2023-03-03T06:27:49;3.70;;;3.60;;
8568;SDS011;4322;51.104;-4.162;2023-03-03T06:30:17;4.37;;;4.17;;
8568;SDS011;4322;51.104;-4.162;2023-03-03T06:32:45;3.50;;;3.40;;
8568;SDS011;4322;51.104;-4.162;2023-03-03T06:35:13;3.73;;;3.63;;
8568;SDS011;4322;51.104;-4.162;2023-03-03T06:37:40;3.60;;;3.50;;
8568;SDS011;4322;51.104;-4.162;2023-03-03T06:40:09;3.70;;;3.60;;
8568;SDS011;4322;51.104;-4.162;2023-03-03T06:42:37;3.90;;;3.80;;
8568;SDS011;4322;51.104;-4.162;2023-03-03T06:45:06;3.73;;;3.63;;
8568;SDS011;4322;51.104;-4.162;2023-03-03T06:47:34;3.67;;;3.57;;
8568;SDS011;4322;51.104;-4.162;2023-03-03T06:50:04;3.53;;;3.43;;
8568;SDS011;4322;51.104;-4.162;2023-03-03T06:52:32;3.80;;;3.70;;
8568;SDS011;4322;51.104;-4.162;2023-03-03T06:55:01;3.60;;;3.50;;
8568;SDS011;4322;51.104;-4.162;2023-03-03T06:57:36;3.57;;;3.47;;
8568;SDS011;4322;51.104;-4.162;2023-03-03T07:00:11;4.27;;;4.07;;
8568;SDS011;4322;51.104;-4.162;2023-03-03T07:02:40;4.07;;;3.87;;
8568;SDS011;4322;51.104;-4.162;2023-03-03T07:05:10;4.27;;;4.07;;
8568;SDS011;4322;51.104;-4.162;2023-03-03T07:07:40;4.30;;;4.10;;
8568;SDS011;4322;51.104;-4.162;2023-03-03T07:10:12;4.43;;;4.23;;
8568;SDS011;4322;51.104;-4.162;2023-03-03T07:12:42;4.07;;;3.87;;
8568;SDS011;4322;51.104;-4.162;2023-03-03T07:15:13;3.57;;;3.47;;
8568;SDS011;4322;51.104;-4.162;2023-03-03T07:17:43;4.10;;;3.90;;
8568;SDS011;4322;51.104;-4.162;2023-03-03T07:20:17;4.10;;;3.90;;
8568;SDS011;4322;51.104;-4.162;2023-03-03T07:22:45;4.60;;;4.40;;
8568;SDS011;4322;51.104;-4.162;2023-03-03T07:25:18;4.70;;;4.50;;
8568;SDS011;4322;51.104;-4.162;2023-03-03T07:27:46;4.60;;;4.40;;
8568;SDS011;4322;51.104;-4.162;2023-03-03T07:30:23;4.57;;;4.37;;
8568;SDS011;4322;51.104;-4.162;2023-03-03T07:32:51;3.80;;;3.70;;
8568;SDS011;4322;51.104;-4.162;2023-03-03T07:35:37;3.90;;;3.80;;
8568;SDS011;4322;51.104;-4.162;2023-03-03T07:38:13;4.40;;;4.20;;
8568;SDS011;4322;51.104;-4.162;2023-03-03T07:40:44;4.43;;;4.23;;
8568;SDS011;4322;51.104;-4.162;2023-03-03T07:43:24;5.07;;;4.87;;
8568;SDS011;4322;51.104;-4.162;2023-03-03T07:45:56;5.10;;;4.90;;
8568;SDS011;4322;51.104;-4.162;2023-03-03T07:48:29;4.83;;;4.63;;
8568;SDS011;4322;51.104;-4.162;2023-03-03T07:50:57;5.70;;;5.50;;
8568;SDS011;4322;51.104;-4.162;2023-03-03T07:53:28;6.00;;;5.70;;
8568;SDS011;4322;51.104;-4.162;2023-03-03T07:55:56;5.50;;;5.30;;
8568;SDS011;4322;51.104;-4.162;2023-03-03T07:58:26;5.50;;;5.30;;
8568;SDS011;4322;51.104;-4.162;2023-03-03T08:03:45;6.33;;;6.03;;
8568;SDS011;4322;51.104;-4.162;2023-03-03T08:09:18;6.17;;;5.87;;
8568;SDS011;4322;51.104;-4.162;2023-03-03T08:11:48;5.60;;;5.40;;
8568;SDS011;4322;51.104;-4.162;2023-03-03T08:14:24;6.63;;;6.33;;
8568;SDS011;4322;51.104;-4.162;2023-03-03T08:16:54;6.93;;;6.63;;
8568;SDS011;4322;51.104;-4.162;2023-03-03T08:19:27;6.70;;;6.40;;
8568;SDS011;4322;51.104;-4.162;2023-03-03T08:22:00;7.40;;;7.10;;
8568;SDS011;4322;51.104;-4.162;2023-03-03T08:24:29;7.37;;;7.07;;
8568;SDS011;4322;51.104;-4.162;2023-03-03T08:26:57;8.17;;;7.77;;
8568;SDS011;4322;51.104;-4.162;2023-03-03T08:29:26;7.53;;;7.23;;
8568;SDS011;4322;51.104;-4.162;2023-03-03T08:31:54;9.00;;;8.60;;
8568;SDS011;4322;51.104;-4.162;2023-03-03T08:34:22;9.43;;;9.03;;
8568;SDS011;4322;51.104;-4.162;2023-03-03T08:36:52;9.93;;;9.43;;
8568;SDS011;4322;51.104;-4.162;2023-03-03T08:39:22;11.10;;;10.60;;
8568;SDS011;4322;51.104;-4.162;2023-03-03T08:41:49;11.57;;;10.97;;
8568;SDS011;4322;51.104;-4.162;2023-03-03T08:44:17;12.50;;;11.90;;
8568;SDS011;4322;51.104;-4.162;2023-03-03T08:46:46;13.17;;;12.57;;
8568;SDS011;4322;51.104;-4.162;2023-03-03T08:49:14;14.30;;;13.60;;
8568;SDS011;4322;51.104;-4.162;2023-03-03T08:51:42;15.20;;;14.40;;
8568;SDS011;4322;51.104;-4.162;2023-03-03T08:54:11;17.00;;;16.10;;
8568;SDS011;4322;51.104;-4.162;2023-03-03T08:56:38;16.07;;;15.27;;
8568;SDS011;4322;51.104;-4.162;2023-03-03T08:59:06;16.93;;;16.03;;
8568;SDS011;4322;51.104;-4.162;2023-03-03T09:01:34;19.13;;;18.13;;
8568;SDS011;4322;51.104;-4.162;2023-03-03T09:04:02;18.20;;;17.30;;
8568;SDS011;4322;51.104;-4.162;2023-03-03T09:06:29;18.13;;;17.23;;
8568;SDS011;4322;51.104;-4.162;2023-03-03T09:08:57;19.27;;;18.27;;
8568;SDS011;4322;51.104;-4.162;2023-03-03T09:11:30;19.87;;;18.87;;
8568;SDS011;4322;51.104;-4.162;2023-03-03T09:14:01;18.10;;;17.20;;
8568;SDS011;4322;51.104;-4.162;2023-03-03T09:16:33;18.50;;;17.57;;
8568;SDS011;4322;51.104;-4.162;2023-03-03T09:19:14;19.27;;;18.27;;
8568;SDS011;4322;51.104;-4.162;2023-03-03T09:21:42;18.83;;;17.83;;
8568;SDS011;4322;51.104;-4.162;2023-03-03T09:24:11;20.00;;;19.00;;
8568;SDS011;4322;51.104;-4.162;2023-03-03T09:26:45;20.57;;;19.47;;
8568;SDS011;4322;51.104;-4.162;2023-03-03T09:29:17;19.47;;;18.47;;
8568;SDS011;4322;51.104;-4.162;2023-03-03T09:31:47;19.97;;;18.97;;
8568;SDS011;4322;51.104;-4.162;2023-03-03T09:34:17;19.87;;;18.87;;
8568;SDS011;4322;51.104;-4.162;2023-03-03T09:36:46;19.00;;;18.00;;
8568;SDS011;4322;51.104;-4.162;2023-03-03T09:39:16;19.60;;;18.60;;
8568;SDS011;4322;51.104;-4.162;2023-03-03T09:41:49;19.67;;;18.67;;
8568;SDS011;4322;51.104;-4.162;2023-03-03T09:47:15;17.87;;;16.97;;
8568;SDS011;4322;51.104;-4.162;2023-03-03T09:49:50;19.77;;;18.77;;
8568;SDS011;4322;51.104;-4.162;2023-03-03T09:52:28;19.27;;;18.27;;
8568;SDS011;4322;51.104;-4.162;2023-03-03T09:55:05;19.63;;;18.63;;
8568;SDS011;4322;51.104;-4.162;2023-03-03T09:57:43;19.73;;;18.73;;
8568;SDS011;4322;51.104;-4.162;2023-03-03T10:00:30;21.07;;;19.97;;
8568;SDS011;4322;51.104;-4.162;2023-03-03T10:03:17;19.93;;;18.93;;
8568;SDS011;4322;51.104;-4.162;2023-03-03T10:05:50;18.30;;;17.40;;
8568;SDS011;4322;51.104;-4.162;2023-03-03T10:08:26;19.70;;;18.70;;
8568;SDS011;4322;51.104;-4.162;2023-03-03T10:11:00;18.70;;;17.70;;
8568;SDS011;4322;51.104;-4.162;2023-03-03T10:13:37;19.70;;;18.70;;
8568;SDS011;4322;51.104;-4.162;2023-03-03T10:16:16;18.87;;;17.87;;
8568;SDS011;4322;51.104;-4.162;2023-03-03T10:18:46;17.90;;;17.00;;
8568;SDS011;4322;51.104;-4.162;2023-03-03T10:21:20;17.53;;;16.63;;
8568;SDS011;4322;51.104;-4.162;2023-03-03T10:23:51;16.97;;;16.07;;
8568;SDS011;4322;51.104;-4.162;2023-03-03T10:26:37;16.60;;;15.80;;
8568;SDS011;4322;51.104;-4.162;2023-03-03T10:29:16;16.83;;;15.97;;
8568;SDS011;4322;51.104;-4.162;2023-03-03T10:31:54;15.33;;;14.53;;
8568;SDS011;4322;51.104;-4.162;2023-03-03T10:34:35;15.97;;;15.17;;
8568;SDS011;4322;51.104;-4.162;2023-03-03T10:37:07;15.60;;;14.80;;
8568;SDS011;4322;51.104;-4.162;2023-03-03T10:39:43;14.43;;;13.73;;
8568;SDS011;4322;51.104;-4.162;2023-03-03T10:42:18;14.53;;;13.83;;
8568;SDS011;4322;51.104;-4.162;2023-03-03T10:44:55;14.10;;;13.40;;
8568;SDS011;4322;51.104;-4.162;2023-03-03T10:50:13;12.80;;;12.20;;
8568;SDS011;4322;51.104;-4.162;2023-03-03T10:52:43;11.70;;;11.10;;
8568;SDS011;4322;51.104;-4.162;2023-03-03T10:55:28;11.80;;;11.20;;
8568;SDS011;4322;51.104;-4.162;2023-03-03T10:58:06;11.53;;;10.93;;
8568;SDS011;4322;51.104;-4.162;2023-03-03T11:00:43;11.20;;;10.70;;
8568;SDS011;4322;51.104;-4.162;2023-03-03T11:03:26;11.13;;;10.63;;
8568;SDS011;4322;51.104;-4.162;2023-03-03T11:05:57;10.17;;;9.67;;
8568;SDS011;4322;51.104;-4.162;2023-03-03T11:08:27;9.37;;;8.97;;
8568;SDS011;4322;51.104;-4.162;2023-03-03T11:11:01;9.20;;;8.80;;
8568;SDS011;4322;51.104;-4.162;2023-03-03T11:13:32;8.53;;;8.13;;
8568;SDS011;4322;51.104;-4.162;2023-03-03T11:16:11;8.50;;;8.10;;
8568;SDS011;4322;51.104;-4.162;2023-03-03T11:18:44;8.07;;;7.67;;
8568;SDS011;4322;51.104;-4.162;2023-03-03T11:21:19;7.03;;;6.73;;
8568;SDS011;4322;51.104;-4.162;2023-03-03T11:23:59;6.63;;;6.33;;
8568;SDS011;4322;51.104;-4.162;2023-03-03T11:26:33;5.50;;;5.30;;
8568;SDS011;4322;51.104;-4.162;2023-03-03T11:29:10;5.47;;;5.27;;
8568;SDS011;4322;51.104;-4.162;2023-03-03T11:31:43;5.23;;;5.03;;
8568;SDS011;4322;51.104;-4.162;2023-03-03T11:34:16;4.90;;;4.70;;
8568;SDS011;4322;51.104;-4.162;2023-03-03T11:36:50;4.40;;;4.20;;
8568;SDS011;4322;51.104;-4.162;2023-03-03T11:39:21;4.10;;;3.90;;
8568;SDS011;4322;51.104;-4.162;2023-03-03T11:41:52;3.80;;;3.70;;
8568;SDS011;4322;51.104;-4.162;2023-03-03T11:44:24;3.47;;;3.37;;
8568;SDS011;4322;51.104;-4.162;2023-03-03T11:46:57;3.20;;;3.10;;
8568;SDS011;4322;51.104;-4.162;2023-03-03T11:49:27;3.17;;;3.07;;
8568;SDS011;4322;51.104;-4.162;2023-03-03T11:52:02;2.80;;;2.70;;
8568;SDS011;4322;51.104;-4.162;2023-03-03T11:54:31;3.00;;;2.90;;
8568;SDS011;4322;51.104;-4.162;2023-03-03T11:57:06;3.10;;;3.00;;
8568;SDS011;4322;51.104;-4.162;2023-03-03T11:59:42;2.80;;;2.70;;
8568;SDS011;4322;51.104;-4.162;2023-03-03T12:02:19;2.80;;;2.70;;
8568;SDS011;4322;51.104;-4.162;2023-03-03T12:04:49;3.10;;;3.00;;
8568;SDS011;4322;51.104;-4.162;2023-03-03T12:07:21;2.70;;;2.60;;
8568;SDS011;4322;51.104;-4.162;2023-03-03T12:09:54;2.67;;;2.57;;
8568;SDS011;4322;51.104;-4.162;2023-03-03T12:12:24;2.60;;;2.50;;
8568;SDS011;4322;51.104;-4.162;2023-03-03T12:14:59;2.60;;;2.50;;
8568;SDS011;4322;51.104;-4.162;2023-03-03T12:17:38;2.60;;;2.50;;
8568;SDS011;4322;51.104;-4.162;2023-03-03T12:20:12;2.50;;;2.40;;
8568;SDS011;4322;51.104;-4.162;2023-03-03T12:22:43;2.60;;;2.50;;
8568;SDS011;4322;51.104;-4.162;2023-03-03T12:25:34;2.33;;;2.23;;
8568;SDS011;4322;51.104;-4.162;2023-03-03T12:28:04;2.40;;;2.30;;
8568;SDS011;4322;51.104;-4.162;2023-03-03T12:33:27;2.30;;;2.20;;
8568;SDS011;4322;51.104;-4.162;2023-03-03T12:36:00;2.10;;;2.10;;
8568;SDS011;4322;51.104;-4.162;2023-03-03T12:38:34;2.00;;;2.00;;
8568;SDS011;4322;51.104;-4.162;2023-03-03T12:41:06;2.40;;;2.30;;
8568;SDS011;4322;51.104;-4.162;2023-03-03T12:46:21;2.03;;;2.03;;
8568;SDS011;4322;51.104;-4.162;2023-03-03T12:48:56;2.20;;;2.13;;
8568;SDS011;4322;51.104;-4.162;2023-03-03T12:51:27;2.10;;;2.10;;
8568;SDS011;4322;51.104;-4.162;2023-03-03T12:54:06;1.83;;;1.83;;
8568;SDS011;4322;51.104;-4.162;2023-03-03T12:56:37;1.90;;;1.90;;
8568;SDS011;4322;51.104;-4.162;2023-03-03T12:59:08;2.30;;;2.20;;
8568;SDS011;4322;51.104;-4.162;2023-03-03T13:01:44;2.00;;;2.00;;
8568;SDS011;4322;51.104;-4.162;2023-03-03T13:04:20;1.90;;;1.90;;
8568;SDS011;4322;51.104;-4.162;2023-03-03T13:06:57;1.80;;;1.80;;
8568;SDS011;4322;51.104;-4.162;2023-03-03T13:09:27;1.90;;;1.90;;
8568;SDS011;4322;51.104;-4.162;2023-03-03T13:12:04;1.73;;;1.73;;
8568;SDS011;4322;51.104;-4.162;2023-03-03T13:14:36;1.77;;;1.77;;
8568;SDS011;4322;51.104;-4.162;2023-03-03T13:17:14;1.90;;;1.90;;
8568;SDS011;4322;51.104;-4.162;2023-03-03T13:19:48;1.90;;;1.90;;
8568;SDS011;4322;51.104;-4.162;2023-03-03T13:22:20;1.90;;;1.90;;
8568;SDS011;4322;51.104;-4.162;2023-03-03T13:24:56;1.80;;;1.80;;
8568;SDS011;4322;51.104;-4.162;2023-03-03T13:27:26;1.80;;;1.80;;
8568;SDS011;4322;51.104;-4.162;2023-03-03T13:29:58;1.70;;;1.70;;
8568;SDS011;4322;51.104;-4.162;2023-03-03T13:32:28;1.90;;;1.90;;
8568;SDS011;4322;51.104;-4.162;2023-03-03T13:35:01;1.60;;;1.60;;
8568;SDS011;4322;51.104;-4.162;2023-03-03T13:37:32;1.70;;;1.70;;
8568;SDS011;4322;51.104;-4.162;2023-03-03T13:40:02;1.70;;;1.70;;
8568;SDS011;4322;51.104;-4.162;2023-03-03T13:42:36;1.50;;;1.50;;
8568;SDS011;4322;51.104;-4.162;2023-03-03T13:45:06;1.63;;;1.63;;
8568;SDS011;4322;51.104;-4.162;2023-03-03T13:47:40;1.70;;;1.70;;
8568;SDS011;4322;51.104;-4.162;2023-03-03T13:50:17;1.70;;;1.70;;
8568;SDS011;4322;51.104;-4.162;2023-03-03T13:52:49;1.60;;;1.60;;
8568;SDS011;4322;51.104;-4.162;2023-03-03T13:55:20;1.40;;;1.40;;
8568;SDS011;4322;51.104;-4.162;2023-03-03T13:57:55;1.60;;;1.60;;
8568;SDS011;4322;51.104;-4.162;2023-03-03T14:00:26;1.40;;;1.40;;
8568;SDS011;4322;51.104;-4.162;2023-03-03T14:03:02;1.80;;;1.80;;
8568;SDS011;4322;51.104;-4.162;2023-03-03T14:05:37;1.77;;;1.77;;
8568;SDS011;4322;51.104;-4.162;2023-03-03T14:08:09;1.70;;;1.70;;
8568;SDS011;4322;51.104;-4.162;2023-03-03T14:10:41;1.60;;;1.60;;
8568;SDS011;4322;51.104;-4.162;2023-03-03T14:13:11;1.60;;;1.60;;
8568;SDS011;4322;51.104;-4.162;2023-03-03T14:15:42;1.70;;;1.70;;
8568;SDS011;4322;51.104;-4.162;2023-03-03T14:18:17;1.60;;;1.60;;
8568;SDS011;4322;51.104;-4.162;2023-03-03T14:20:50;1.90;;;1.90;;
8568;SDS011;4322;51.104;-4.162;2023-03-03T14:23:19;1.90;;;1.90;;
8568;SDS011;4322;51.104;-4.162;2023-03-03T14:25:50;1.77;;;1.77;;
8568;SDS011;4322;51.104;-4.162;2023-03-03T14:28:19;1.73;;;1.73;;
8568;SDS011;4322;51.104;-4.162;2023-03-03T14:30:47;1.70;;;1.70;;
8568;SDS011;4322;51.104;-4.162;2023-03-03T14:33:17;1.90;;;1.90;;
8568;SDS011;4322;51.104;-4.162;2023-03-03T14:35:51;1.50;;;1.50;;
8568;SDS011;4322;51.104;-4.162;2023-03-03T14:38:35;1.90;;;1.90;;
8568;SDS011;4322;51.104;-4.162;2023-03-03T14:41:05;1.80;;;1.80;;
8568;SDS011;4322;51.104;-4.162;2023-03-03T14:43:38;1.40;;;1.40;;
8568;SDS011;4322;51.104;-4.162;2023-03-03T14:46:21;1.50;;;1.50;;
8568;SDS011;4322;51.104;-4.162;2023-03-03T14:48:57;1.50;;;1.50;;
8568;SDS011;4322;51.104;-4.162;2023-03-03T14:51:27;1.60;;;1.60;;
8568;SDS011;4322;51.104;-4.162;2023-03-03T14:53:56;1.70;;;1.70;;
8568;SDS011;4322;51.104;-4.162;2023-03-03T14:56:24;1.90;;;1.90;;
8568;SDS011;4322;51.104;-4.162;2023-03-03T14:58:53;1.80;;;1.80;;
8568;SDS011;4322;51.104;-4.162;2023-03-03T15:01:22;1.63;;;1.63;;
8568;SDS011;4322;51.104;-4.162;2023-03-03T15:03:57;1.50;;;1.50;;
8568;SDS011;4322;51.104;-4.162;2023-03-03T15:09:29;1.50;;;1.50;;
8568;SDS011;4322;51.104;-4.162;2023-03-03T15:12:02;1.70;;;1.70;;
8568;SDS011;4322;51.104;-4.162;2023-03-03T15:14:31;1.60;;;1.60;;
8568;SDS011;4322;51.104;-4.162;2023-03-03T15:19:49;1.57;;;1.57;;
8568;SDS011;4322;51.104;-4.162;2023-03-03T15:22:36;1.30;;;1.30;;
8568;SDS011;4322;51.104;-4.162;2023-03-03T15:25:10;1.37;;;1.37;;
8568;SDS011;4322;51.104;-4.162;2023-03-03T15:27:42;1.33;;;1.33;;
8568;SDS011;4322;51.104;-4.162;2023-03-03T15:30:14;1.33;;;1.33;;
8568;SDS011;4322;51.104;-4.162;2023-03-03T15:32:48;1.10;;;1.10;;
8568;SDS011;4322;51.104;-4.162;2023-03-03T15:35:21;1.50;;;1.50;;
8568;SDS011;4322;51.104;-4.162;2023-03-03T15:37:53;1.40;;;1.40;;
8568;SDS011;4322;51.104;-4.162;2023-03-03T15:40:25;1.40;;;1.40;;
8568;SDS011;4322;51.104;-4.162;2023-03-03T15:42:56;1.30;;;1.30;;
8568;SDS011;4322;51.104;-4.162;2023-03-03T15:45:25;1.40;;;1.40;;